Time;durP1;ratioP1;P1;durP2;ratioP2;P2;SDS_P1;SDS_P2;PMS_P1;PMS_P2;Temp;Humidity;BMP_temperature;BMP_pressure;BME280_temperature;BME280_humidity;BME280_pressure;Samples;Min_cycle;Max_cycle;Signal;HPM_P1;HPM_P2
2021/12/23 00:02:04;;;;;;;;;48.00;34.50;;;;;-0.09;72.35;101398.66;5039248;28;45237;-53
2021/12/23 00:04:30;;;;;;;;;59.50;40.75;;;;;-0.08;73.07;101401.25;5039587;28;45556;-51
2021/12/23 00:06:55;;;;;;;;;49.25;34.00;;;;;-0.07;72.75;101399.47;5039079;28;45982;-48
2021/12/23 00:09:24;;;;;;;;;57.25;35.50;;;;;-0.08;72.60;101393.41;5038773;28;45677;-52
2021/12/23 00:11:49;;;;;;;;;67.00;44.50;;;;;-0.03;72.61;101401.06;5039201;28;45285;-50
2021/12/23 00:14:14;;;;;;;;;41.00;33.00;;;;;0.01;72.42;101405.25;5039206;28;45313;-49
2021/12/23 00:16:55;;;;;;;;;46.25;38.25;;;;;0.06;73.25;101398.03;5038739;28;46086;-52
2021/12/23 00:24:40;;;;;;;;;59.25;41.50;;;;;-0.10;72.51;101348.13;5038850;28;46059;-52
2021/12/23 00:27:07;;;;;;;;;58.50;38.50;;;;;-0.02;72.60;101350.44;5038626;28;46239;-51
2021/12/23 00:29:33;;;;;;;;;50.25;45.00;;;;;-0.03;73.12;101362.66;5038794;28;45369;-51
2021/12/23 00:31:59;;;;;;;;;50.00;39.25;;;;;-0.11;73.17;101364.75;5038824;28;45328;-51
2021/12/23 00:34:25;;;;;;;;;49.75;37.50;;;;;-0.10;73.11;101369.06;5039105;28;45437;-51
2021/12/23 00:36:52;;;;;;;;;49.75;42.50;;;;;-0.13;73.75;101371.78;5038457;28;45422;-51
2021/12/23 00:39:17;;;;;;;;;59.75;38.00;;;;;-0.15;73.32;101367.56;5038664;28;45365;-52
2021/12/23 00:41:44;;;;;;;;;49.25;40.50;;;;;-0.14;73.63;101364.00;5038358;28;45901;-51
2021/12/23 00:44:11;;;;;;;;;39.75;27.75;;;;;-0.18;72.85;101344.13;5038816;28;45523;-51
2021/12/23 00:46:36;;;;;;;;;53.75;37.50;;;;;-0.17;73.73;101356.28;5038579;28;45416;-52
2021/12/23 00:49:02;;;;;;;;;58.75;39.25;;;;;-0.16;73.47;101360.63;5038470;28;45359;-52
2021/12/23 00:51:29;;;;;;;;;66.00;46.00;;;;;-0.15;73.63;101354.47;5038572;28;45342;-51
2021/12/23 00:54:03;;;;;;;;;53.00;39.25;;;;;-0.15;73.25;101351.84;5038715;28;45519;-53
2021/12/23 00:56:29;;;;;;;;;53.00;39.75;;;;;-0.18;73.82;101329.28;5038709;28;46427;-53
2021/12/23 00:58:54;;;;;;;;;34.25;23.75;;;;;-0.17;73.56;101331.03;5038255;28;45366;-51
2021/12/23 01:01:19;;;;;;;;;57.75;45.00;;;;;-0.19;73.88;101329.38;5038681;28;45293;-51
2021/12/23 01:03:45;;;;;;;;;41.75;39.50;;;;;-0.16;73.61;101339.72;5020593;28;45341;-52
2021/12/23 01:06:11;;;;;;;;;46.00;38.50;;;;;-0.20;73.51;101319.84;5038207;28;46129;-51
2021/12/23 01:08:36;;;;;;;;;49.75;35.50;;;;;-0.16;73.90;101327.47;5037966;28;45318;-50
2021/12/23 01:11:02;;;;;;;;;33.50;23.50;;;;;-0.30;73.64;101307.09;5037994;28;45289;-52
2021/12/23 01:13:29;;;;;;;;;57.50;45.00;;;;;-0.27;74.24;101308.75;5020435;28;45318;-48
2021/12/23 01:16:02;;;;;;;;;66.50;44.00;;;;;-0.23;74.43;101325.19;5037774;28;47079;-50
2021/12/23 01:18:37;;;;;;;;;57.75;45.00;;;;;-0.26;74.29;101316.53;5037804;28;45398;-52
2021/12/23 01:21:04;;;;;;;;;45.50;31.25;;;;;-0.25;73.73;101322.63;5038097;28;45310;-51
2021/12/23 01:23:34;;;;;;;;;56.50;39.50;;;;;-0.28;74.90;101317.53;5020247;28;45478;-50
2021/12/23 01:26:00;;;;;;;;;40.75;23.75;;;;;-0.27;73.74;101327.91;5037488;28;46417;-49
2021/12/23 01:28:26;;;;;;;;;27.00;11.00;;;;;-0.38;74.37;101300.50;5037894;28;45389;-52
2021/12/23 01:30:52;;;;;;;;;49.50;29.25;;;;;-0.31;73.82;101307.19;5037879;28;45248;-51
2021/12/23 01:33:17;;;;;;;;;48.50;39.50;;;;;-0.25;73.91;101317.41;5038222;28;45176;-53
2021/12/23 01:35:49;;;;;;;;;56.00;42.50;;;;;-0.24;74.38;101313.03;5037317;28;46766;-49
2021/12/23 01:38:15;;;;;;;;;54.25;45.25;;;;;-0.26;73.96;101313.06;5037840;28;45502;-54
2021/12/23 01:40:44;;;;;;;;;39.50;33.75;;;;;-0.27;73.90;101304.38;5037676;28;45580;-48
2021/12/23 01:43:10;;;;;;;;;52.25;40.00;;;;;-0.21;74.21;101311.13;5039168;28;45500;-52
2021/12/23 01:45:43;;;;;;;;;46.50;32.25;;;;;-0.19;74.27;101305.84;5037719;28;45833;-54
2021/12/23 01:48:09;;;;;;;;;66.00;46.50;;;;;-0.16;74.78;101310.94;5038082;28;45302;-50
2021/12/23 01:50:37;;;;;;;;;36.25;31.50;;;;;-0.13;73.75;101308.19;5040887;28;45892;-49
2021/12/23 01:53:03;;;;;;;;;43.75;30.50;;;;;-0.16;74.45;101313.56;5038018;28;45409;-48
2021/12/23 01:55:29;;;;;;;;;44.75;34.00;;;;;-0.17;74.06;101298.75;5038261;28;45380;-50
2021/12/23 01:57:56;;;;;;;;;58.75;42.50;;;;;-0.19;74.34;101295.38;5037604;28;45285;-48
2021/12/23 02:00:26;;;;;;;;;66.50;44.00;;;;;-0.16;73.93;101297.88;5040020;28;45254;-54
2021/12/23 02:02:53;;;;;;;;;45.50;37.50;;;;;-0.16;74.60;101290.03;5039660;28;45320;-50
2021/12/23 02:05:19;;;;;;;;;52.25;41.00;;;;;-0.12;74.63;101291.59;5038809;28;46222;-49
2021/12/23 02:07:45;;;;;;;;;54.00;37.75;;;;;-0.11;74.10;101293.28;5037542;28;45258;-48
2021/12/23 02:10:11;;;;;;;;;56.50;45.00;;;;;-0.09;73.89;101280.97;5037396;28;45503;-48
2021/12/23 02:12:37;;;;;;;;;49.50;39.00;;;;;-0.13;74.18;101263.72;5037347;28;45254;-49
2021/12/23 02:15:04;;;;;;;;;39.75;36.75;;;;;-0.03;73.93;101275.50;5036967;28;47262;-52
2021/12/23 02:17:35;;;;;;;;;45.75;35.75;;;;;-0.01;73.88;101279.75;5036859;28;45384;-51
2021/12/23 02:20:00;;;;;;;;;60.50;45.75;;;;;0.04;74.20;101290.00;5037223;28;45416;-50
2021/12/23 02:22:25;;;;;;;;;43.75;34.25;;;;;0.06;73.65;101293.41;5037308;28;45487;-52
2021/12/23 02:24:50;;;;;;;;;47.75;32.75;;;;;0.05;73.78;101283.03;5036772;28;46143;-53
2021/12/23 02:27:16;;;;;;;;;51.00;39.25;;;;;0.10;73.91;101281.06;5036664;28;45286;-49
2021/12/23 02:29:41;;;;;;;;;58.75;47.50;;;;;0.06;73.40;101277.72;5019180;28;45325;-50
2021/12/23 02:32:07;;;;;;;;;56.50;45.00;;;;;0.10;74.09;101276.66;5037302;28;45240;-50
2021/12/23 02:34:33;;;;;;;;;59.75;44.50;;;;;0.08;73.85;101262.78;5036868;28;46290;-49
2021/12/23 02:36:59;;;;;;;;;54.25;42.00;;;;;0.07;74.21;101266.34;5036783;28;45481;-52
2021/12/23 02:39:27;;;;;;;;;62.75;43.50;;;;;-0.05;73.33;101244.16;5037024;28;45421;-50
2021/12/23 02:41:53;;;;;;;;;50.75;43.50;;;;;0.05;74.22;101270.81;5036919;28;45371;-48
2021/12/23 02:44:20;;;;;;;;;52.75;43.00;;;;;0.06;74.07;101269.03;5036899;28;45332;-51
2021/12/23 02:46:45;;;;;;;;;52.75;42.50;;;;;0.05;73.80;101259.50;5036742;28;45524;-50
2021/12/23 02:49:11;;;;;;;;;51.00;44.50;;;;;0.09;74.00;101255.81;5036669;28;45274;-50
2021/12/23 02:51:37;;;;;;;;;57.25;41.50;;;;;0.02;74.46;101252.63;5037049;28;45302;-51
2021/12/23 02:54:04;;;;;;;;;52.25;41.50;;;;;0.03;73.77;101251.69;5036557;28;46313;-52
2021/12/23 02:56:29;;;;;;;;;40.25;32.00;;;;;0.04;74.08;101252.53;5036515;28;45476;-50
2021/12/23 02:58:55;;;;;;;;;63.00;46.50;;;;;0.04;74.34;101263.00;5036649;28;45353;-51
2021/12/23 03:01:22;;;;;;;;;44.00;37.50;;;;;0.04;73.64;101257.75;5036827;28;45378;-52
2021/12/23 03:03:47;;;;;;;;;52.50;42.50;;;;;-0.01;74.30;101248.34;5036493;28;46448;-51
2021/12/23 03:06:13;;;;;;;;;59.75;36.50;;;;;0.07;73.50;101258.50;5038561;28;45325;-51
2021/12/23 03:08:47;;;;;;;;;66.25;48.00;;;;;0.10;74.26;101247.91;5039953;28;45326;-51
2021/12/23 03:11:16;;;;;;;;;62.50;44.50;;;;;0.14;74.50;101246.00;5040306;28;45357;-50
2021/12/23 03:13:42;;;;;;;;;69.00;47.00;;;;;0.12;74.73;101239.97;5039814;28;46124;-52
2021/12/23 03:16:09;;;;;;;;;64.00;48.25;;;;;0.12;74.75;101242.59;5039672;28;45496;-50
2021/12/23 03:18:35;;;;;;;;;60.00;44.50;;;;;0.01;73.67;101232.63;5040168;28;45290;-51
2021/12/23 03:21:01;;;;;;;;;72.25;47.00;;;;;0.12;74.83;101232.97;5040101;28;45192;-50
2021/12/23 03:23:27;;;;;;;;;62.75;41.75;;;;;0.09;73.96;101238.34;5039784;28;45384;-50
2021/12/23 03:25:52;;;;;;;;;48.25;29.50;;;;;0.07;74.25;101234.94;5039750;28;45381;-52
2021/12/23 03:28:18;;;;;;;;;51.50;36.50;;;;;0.08;74.22;101235.78;5039731;28;45378;-51
2021/12/23 03:30:45;;;;;;;;;56.25;44.00;;;;;-0.08;73.77;101206.88;5040193;28;45500;-47
2021/12/23 03:33:10;;;;;;;;;51.50;42.50;;;;;0.08;73.82;101226.16;5039719;28;45393;-52
2021/12/23 03:35:36;;;;;;;;;62.25;44.75;;;;;0.11;74.50;101217.34;5039824;28;45450;-49
2021/12/23 03:38:03;;;;;;;;;57.25;45.00;;;;;0.10;73.86;101218.28;5039894;28;45406;-51
2021/12/23 03:40:29;;;;;;;;;50.75;41.50;;;;;0.08;74.33;101213.09;5039875;28;45323;-52
2021/12/23 03:42:54;;;;;;;;;64.25;43.75;;;;;0.08;74.09;101215.72;5039236;28;46191;-51
2021/12/23 03:45:19;;;;;;;;;61.50;46.50;;;;;0.07;74.53;101207.94;5039360;28;45374;-48
2021/12/23 03:47:48;;;;;;;;;56.00;43.75;;;;;-0.14;74.83;101178.34;5039587;28;45537;-49
2021/12/23 03:50:17;;;;;;;;;58.50;37.25;;;;;0.05;74.97;101207.19;5039756;28;45370;-48
2021/12/23 03:52:43;;;;;;;;;54.50;45.00;;;;;0.01;74.65;101187.31;5039375;28;45236;-50
2021/12/23 03:55:08;;;;;;;;;45.75;35.75;;;;;0.07;74.20;101193.09;5039515;28;45333;-51
2021/12/23 03:57:34;;;;;;;;;46.25;41.75;;;;;0.06;75.00;101201.88;5039285;28;45499;-52
2021/12/23 03:59:59;;;;;;;;;54.50;41.00;;;;;0.07;75.64;101200.94;5039467;28;45413;-52
2021/12/23 04:02:24;;;;;;;;;70.00;45.25;;;;;0.09;75.00;101195.66;5039161;28;45295;-50
2021/12/23 04:04:50;;;;;;;;;48.00;39.00;;;;;0.09;74.35;101191.28;5039191;28;45618;-52
2021/12/23 04:07:16;;;;;;;;;63.50;44.50;;;;;0.08;75.05;101186.94;5039401;28;45293;-52
2021/12/23 04:09:42;;;;;;;;;62.75;44.50;;;;;0.11;75.00;101192.03;5039372;28;45462;-53
2021/12/23 04:12:08;;;;;;;;;51.50;37.25;;;;;0.12;75.26;101188.50;5038810;28;45992;-52
2021/12/23 04:14:33;;;;;;;;;55.25;45.00;;;;;0.11;74.92;101186.81;5039363;28;45333;-51
2021/12/23 04:16:58;;;;;;;;;51.00;31.50;;;;;0.12;74.43;101171.94;5038318;28;45540;-51
2021/12/23 04:19:28;;;;;;;;;63.25;48.00;;;;;0.11;74.76;101173.72;5039323;28;45402;-52
2021/12/23 04:21:54;;;;;;;;;73.00;47.00;;;;;0.12;75.27;101164.09;5038881;28;46092;-52
2021/12/23 04:24:19;;;;;;;;;54.50;39.25;;;;;0.13;74.66;101171.06;5038851;28;45488;-50
2021/12/23 04:26:44;;;;;;;;;50.50;35.00;;;;;0.08;75.34;101162.56;5038964;28;45740;-51
2021/12/23 04:29:10;;;;;;;;;71.25;48.25;;;;;0.08;74.58;101166.00;5038932;28;45283;-53
2021/12/23 04:31:35;;;;;;;;;47.00;32.50;;;;;0.08;74.72;101157.31;5038691;28;45450;-53
2021/12/23 04:34:02;;;;;;;;;60.50;46.75;;;;;-0.09;75.41;101132.78;5038752;28;45318;-50
2021/12/23 04:36:29;;;;;;;;;60.50;36.00;;;;;0.12;75.41;101159.72;5038938;28;45333;-51
2021/12/23 04:38:56;;;;;;;;;42.25;35.75;;;;;0.12;75.36;101154.50;5038975;28;45487;-50
2021/12/23 04:41:22;;;;;;;;;49.00;40.00;;;;;0.13;76.10;101163.22;5038531;28;46138;-51
2021/12/23 04:43:47;;;;;;;;;48.00;38.75;;;;;0.06;75.40;101133.84;5038353;28;45330;-53
2021/12/23 04:46:13;;;;;;;;;56.50;41.50;;;;;0.21;75.32;101147.97;5038873;28;45397;-49
2021/12/23 04:48:38;;;;;;;;;52.00;42.00;;;;;0.24;75.61;101147.84;5038730;28;45292;-51
2021/12/23 04:51:04;;;;;;;;;61.50;46.00;;;;;0.28;75.15;101156.41;5038394;28;45435;-52
2021/12/23 04:53:30;;;;;;;;;58.25;46.75;;;;;0.28;75.00;101153.78;5038387;28;45282;-50
2021/12/23 04:55:55;;;;;;;;;55.25;46.25;;;;;0.28;74.87;101146.78;5038505;28;45448;-53
2021/12/23 04:58:21;;;;;;;;;67.50;46.75;;;;;0.27;75.45;101147.72;5038450;28;45449;-52
2021/12/23 05:00:49;;;;;;;;;57.25;42.50;;;;;0.31;74.72;101143.19;5038150;28;45572;-52
2021/12/23 05:03:18;;;;;;;;;67.50;47.50;;;;;0.33;74.66;101136.09;5038140;28;45433;-52
2021/12/23 05:05:45;;;;;;;;;56.00;42.00;;;;;0.28;74.15;101131.09;5038130;28;45247;-49
2021/12/23 05:08:11;;;;;;;;;58.25;46.50;;;;;0.33;75.20;101142.19;5020582;28;45483;-51
2021/12/23 05:10:36;;;;;;;;;50.50;32.75;;;;;0.30;75.06;101129.28;5038036;28;46302;-50
2021/12/23 05:13:03;;;;;;;;;40.50;36.50;;;;;0.32;75.39;101144.88;5037827;28;45393;-50
2021/12/23 05:15:29;;;;;;;;;64.00;43.50;;;;;0.35;75.33;101134.28;5037679;28;45283;-53
2021/12/23 05:17:54;;;;;;;;;55.50;46.50;;;;;0.37;74.79;101129.81;5038197;28;45337;-49
2021/12/23 05:20:20;;;;;;;;;32.75;32.75;;;;;0.35;74.73;101131.66;5037880;28;46129;-52
2021/12/23 05:22:47;;;;;;;;;60.25;45.75;;;;;0.24;75.65;101101.59;5038111;28;45335;-52
2021/12/23 05:25:13;;;;;;;;;36.00;27.00;;;;;0.37;75.13;101116.72;5037971;28;46171;-51
2021/12/23 05:27:39;;;;;;;;;51.50;45.25;;;;;0.40;74.95;101124.44;5038105;28;45385;-49
2021/12/23 05:30:10;;;;;;;;;58.00;43.75;;;;;0.41;75.82;101119.13;5036533;28;45250;-52
2021/12/23 05:32:36;;;;;;;;;54.00;41.50;;;;;0.43;75.06;101111.22;5037749;28;45338;-50
2021/12/23 05:35:01;;;;;;;;;49.50;32.75;;;;;0.44;74.52;101111.13;5038074;28;45222;-49
2021/12/23 05:37:26;;;;;;;;;60.25;45.00;;;;;0.42;74.81;101099.91;5038015;28;45431;-51
2021/12/23 05:39:52;;;;;;;;;75.25;45.25;;;;;0.45;75.36;101111.97;5037581;28;45387;-52
2021/12/23 05:42:17;;;;;;;;;62.25;45.25;;;;;0.46;74.98;101097.97;5037720;28;45439;-53
2021/12/23 05:44:43;;;;;;;;;61.25;41.50;;;;;0.43;75.58;101093.75;5019751;28;45311;-52
2021/12/23 05:47:08;;;;;;;;;65.50;48.75;;;;;0.49;74.97;101100.44;5038154;28;45324;-54
2021/12/23 05:49:34;;;;;;;;;57.00;39.00;;;;;0.53;75.19;101101.16;5037467;28;46316;-53
2021/12/23 05:51:59;;;;;;;;;62.50;41.50;;;;;0.46;75.04;101090.09;5037460;28;45377;-53
2021/12/23 05:54:24;;;;;;;;;60.25;46.00;;;;;0.53;74.84;101101.16;5037679;28;45295;-52
2021/12/23 05:56:50;;;;;;;;;60.75;46.75;;;;;0.51;75.58;101090.75;5037645;28;45437;-50
2021/12/23 05:59:15;;;;;;;;;66.75;45.50;;;;;0.53;74.74;101101.16;5037343;28;45880;-52
2021/12/23 06:01:41;;;;;;;;;75.00;55.75;;;;;0.50;75.75;101102.97;5037212;28;45317;-55
2021/12/23 06:04:07;;;;;;;;;58.00;44.00;;;;;0.50;74.88;101094.28;5019553;28;45674;-53
2021/12/23 06:06:33;;;;;;;;;43.00;33.00;;;;;0.53;74.56;101102.00;5037660;28;45499;-50
2021/12/23 06:08:59;;;;;;;;;53.00;46.00;;;;;0.54;75.39;101101.06;5037163;28;46030;-52
2021/12/23 06:11:24;;;;;;;;;76.75;42.50;;;;;0.53;75.62;101096.75;5037489;28;45332;-52
2021/12/23 06:13:49;;;;;;;;;70.50;52.00;;;;;0.52;75.48;101095.06;5037001;28;45695;-51
2021/12/23 06:16:15;;;;;;;;;61.25;46.25;;;;;0.56;75.13;101101.00;5037282;28;45428;-51
2021/12/23 06:18:40;;;;;;;;;52.75;48.00;;;;;0.59;74.69;101100.84;5037087;28;47139;-50
2021/12/23 06:21:05;;;;;;;;;73.00;48.50;;;;;0.49;75.26;101076.88;5037133;28;45296;-50
2021/12/23 06:23:31;;;;;;;;;78.50;54.00;;;;;0.52;75.59;101095.06;5037266;28;45377;-48
2021/12/23 06:25:57;;;;;;;;;56.25;44.50;;;;;0.56;75.37;101093.16;5037444;28;45220;-53
2021/12/23 06:28:23;;;;;;;;;35.00;25.50;;;;;0.55;75.44;101086.19;5018723;28;45398;-50
2021/12/23 06:30:48;;;;;;;;;52.50;39.50;;;;;0.56;76.00;101090.53;5037124;28;45283;-50
2021/12/23 06:33:14;;;;;;;;;34.50;30.25;;;;;0.56;75.13;101091.38;5037143;28;45464;-51
2021/12/23 06:35:40;;;;;;;;;39.25;35.75;;;;;0.58;75.36;101100.00;5037228;28;45309;-53
2021/12/23 06:38:08;;;;;;;;;52.50;42.75;;;;;0.61;75.35;101106.88;5036761;28;46212;-52
2021/12/23 06:40:34;;;;;;;;;50.75;33.75;;;;;0.63;75.21;101097.16;5039573;28;45374;-49
2021/12/23 06:42:59;;;;;;;;;65.00;48.75;;;;;0.63;75.96;101107.63;5043534;28;45376;-51
2021/12/23 06:45:25;;;;;;;;;54.25;44.00;;;;;0.62;75.23;101111.16;5043650;28;45394;-52
2021/12/23 06:47:50;;;;;;;;;61.25;39.75;;;;;0.62;75.34;101112.00;5043409;28;46219;-51
2021/12/23 06:50:17;;;;;;;;;67.00;45.50;;;;;0.61;75.18;101104.25;5043480;28;45428;-50
2021/12/23 06:52:43;;;;;;;;;67.25;46.75;;;;;0.58;75.54;101100.00;5043010;28;45327;-52
2021/12/23 06:55:11;;;;;;;;;59.75;48.50;;;;;0.59;75.88;101101.72;5043402;28;45358;-50
2021/12/23 06:57:37;;;;;;;;;61.00;41.00;;;;;0.57;75.91;101097.47;5043005;28;46207;-51
2021/12/23 07:00:08;;;;;;;;;61.25;45.00;;;;;0.58;76.04;101097.38;5043343;28;45456;-53
2021/12/23 07:02:37;;;;;;;;;60.50;45.00;;;;;0.55;75.48;101094.06;5043238;28;45433;-52
2021/12/23 07:05:04;;;;;;;;;66.75;46.25;;;;;0.63;75.81;101107.63;5043473;28;45284;-51
2021/12/23 07:07:40;;;;;;;;;51.50;39.75;;;;;0.65;74.76;101105.78;5043228;28;46419;-51
2021/12/23 07:10:06;;;;;;;;;64.00;45.00;;;;;0.68;76.02;101105.66;5043337;28;45494;-51
2021/12/23 07:12:32;;;;;;;;;45.75;37.25;;;;;0.66;74.92;101104.88;5043153;28;45438;-50
2021/12/23 07:14:58;;;;;;;;;63.25;44.00;;;;;0.70;75.54;101109.03;5043402;28;45223;-52
2021/12/23 07:17:23;;;;;;;;;69.50;44.50;;;;;0.69;75.84;101102.94;5043002;28;46456;-51
2021/12/23 07:19:49;;;;;;;;;53.75;45.00;;;;;0.61;75.55;101086.75;5042899;28;45215;-57
2021/12/23 07:22:14;;;;;;;;;57.25;41.50;;;;;0.68;75.78;101097.81;5025330;28;45381;-49
2021/12/23 07:24:41;;;;;;;;;66.25;48.25;;;;;0.74;75.43;101108.81;5043275;28;45242;-52
2021/12/23 07:27:07;;;;;;;;;51.50;44.50;;;;;0.78;75.47;101112.13;5024431;28;48162;-49
2021/12/23 07:29:32;;;;;;;;;71.25;49.25;;;;;0.80;75.77;101119.91;5043006;28;45370;-49
2021/12/23 07:31:58;;;;;;;;;57.75;45.00;;;;;0.83;76.07;101119.75;5042763;28;45646;-52
2021/12/23 07:34:23;;;;;;;;;43.00;42.25;;;;;0.86;75.45;101115.22;5043315;28;45342;-50
2021/12/23 07:36:49;;;;;;;;;63.75;48.25;;;;;0.87;75.79;101111.66;5042683;28;46092;-51
2021/12/23 07:39:14;;;;;;;;;67.75;53.00;;;;;0.93;75.33;101118.41;5042767;28;45464;-51
2021/12/23 07:41:40;;;;;;;;;65.00;47.50;;;;;0.96;75.04;101113.81;5043056;28;45302;-50
2021/12/23 07:44:07;;;;;;;;;60.50;45.00;;;;;0.88;75.60;101096.81;5041838;28;45589;-50
2021/12/23 07:46:35;;;;;;;;;63.50;48.00;;;;;1.04;75.38;101115.22;5042638;28;45173;-51
2021/12/23 07:49:01;;;;;;;;;64.00;49.75;;;;;0.99;75.51;101111.06;5042665;28;45218;-51
2021/12/23 07:51:27;;;;;;;;;61.25;48.00;;;;;1.11;75.10;101124.47;5041529;28;45357;-51
2021/12/23 07:53:54;;;;;;;;;71.50;50.75;;;;;1.15;74.79;101116.38;5039033;28;45282;-52
2021/12/23 07:56:24;;;;;;;;;66.50;52.50;;;;;1.21;74.98;101130.94;5039171;28;46405;-51
2021/12/23 07:58:50;;;;;;;;;66.25;44.50;;;;;1.23;75.03;101119.47;5039352;28;45345;-51
2021/12/23 08:01:15;;;;;;;;;55.75;47.50;;;;;1.30;75.09;101106.88;5039399;28;45230;-54
2021/12/23 08:03:41;;;;;;;;;70.00;49.25;;;;;1.37;74.71;101115.28;5039331;28;45333;-50
2021/12/23 08:06:06;;;;;;;;;64.25;48.00;;;;;1.40;74.63;101107.28;5039167;28;45243;-51
2021/12/23 08:08:32;;;;;;;;;58.75;45.00;;;;;1.44;74.48;101114.06;5039291;28;45354;-51
2021/12/23 08:10:58;;;;;;;;;67.00;47.75;;;;;1.40;74.43;101096.81;5039200;28;45374;-53
2021/12/23 08:13:23;;;;;;;;;71.50;51.25;;;;;1.65;74.34;101109.47;5039344;28;45368;-52
2021/12/23 08:15:49;;;;;;;;;65.50;51.25;;;;;1.74;73.60;101109.84;5038461;28;46366;-53
2021/12/23 08:18:16;;;;;;;;;54.00;33.50;;;;;1.83;73.52;101112.91;5038903;28;45361;-49
2021/12/23 08:20:41;;;;;;;;;66.00;48.50;;;;;1.89;73.32;101107.31;5039040;28;45330;-52
2021/12/23 08:23:07;;;;;;;;;65.50;50.75;;;;;1.96;73.30;101119.19;5039203;28;45350;-52
2021/12/23 08:25:32;;;;;;;;;63.25;45.25;;;;;2.00;72.89;101110.22;5038807;28;45321;-50
2021/12/23 08:27:58;;;;;;;;;69.00;49.50;;;;;1.97;72.60;101095.47;5038507;28;45543;-53
2021/12/23 08:30:24;;;;;;;;;78.00;53.00;;;;;2.04;72.78;101106.50;5038734;28;45167;-50
2021/12/23 08:32:49;;;;;;;;;66.50;46.75;;;;;2.07;73.06;101111.59;5038906;28;45391;-52
2021/12/23 08:35:16;;;;;;;;;65.25;48.00;;;;;2.15;72.44;101104.16;5038371;28;45434;-52
2021/12/23 08:37:46;;;;;;;;;61.75;48.75;;;;;2.23;72.28;101108.94;5038820;28;45585;-51
2021/12/23 08:40:17;;;;;;;;;47.50;34.00;;;;;2.27;72.34;101101.75;5038366;28;45381;-55
2021/12/23 08:42:43;;;;;;;;;68.75;51.00;;;;;2.35;72.16;101100.41;5038750;28;45377;-52
2021/12/23 08:45:09;;;;;;;;;58.25;46.25;;;;;2.38;71.77;101102.00;5038189;28;46892;-50
2021/12/23 08:47:35;;;;;;;;;62.25;43.25;;;;;2.43;71.96;101087.69;5038487;28;45430;-53
2021/12/23 08:50:02;;;;;;;;;59.00;48.00;;;;;2.49;71.49;101097.03;5038714;28;45425;-52
2021/12/23 08:52:28;;;;;;;;;52.00;43.75;;;;;2.61;71.48;101095.47;5038479;28;45230;-50
2021/12/23 08:54:54;;;;;;;;;59.00;44.50;;;;;2.65;71.21;101089.94;5038234;28;45901;-51
2021/12/23 08:57:19;;;;;;;;;71.50;48.00;;;;;2.64;70.83;101085.63;5038340;28;45326;-50
2021/12/23 08:59:46;;;;;;;;;70.00;54.00;;;;;2.53;71.23;101074.03;5038335;28;45322;-51
2021/12/23 09:02:11;;;;;;;;;65.50;52.00;;;;;2.67;70.87;101088.09;5038386;28;45254;-51
2021/12/23 09:04:38;;;;;;;;;54.25;45.00;;;;;2.68;71.44;101089.78;5038080;28;45464;-52
2021/12/23 09:07:04;;;;;;;;;51.75;43.25;;;;;2.68;71.05;101091.56;5038069;28;45310;-53
2021/12/23 09:09:32;;;;;;;;;69.00;48.50;;;;;2.72;70.74;101087.81;5038489;28;46019;-51
2021/12/23 09:11:58;;;;;;;;;60.50;46.25;;;;;2.75;71.19;101082.41;5038259;28;45421;-52
2021/12/23 09:14:23;;;;;;;;;66.75;52.75;;;;;2.75;70.90;101085.88;5038148;28;45243;-53
2021/12/23 09:16:49;;;;;;;;;62.25;49.00;;;;;2.81;70.92;101099.59;5037618;28;45349;-53
2021/12/23 09:19:14;;;;;;;;;48.25;33.75;;;;;2.80;70.75;101090.00;5038124;28;45278;-51
2021/12/23 09:21:40;;;;;;;;;60.50;47.75;;;;;2.88;71.08;101103.56;5038460;28;45512;-51
2021/12/23 09:24:06;;;;;;;;;66.00;51.75;;;;;2.94;70.58;101097.94;5037867;28;46563;-53
2021/12/23 09:26:35;;;;;;;;;56.75;48.00;;;;;3.03;71.08;101107.91;5038075;28;45279;-50
2021/12/23 09:29:13;;;;;;;;;68.25;46.25;;;;;3.01;70.31;101094.03;5038196;28;45336;-50
2021/12/23 09:34:23;;;;;;;;;58.00;48.25;;;;;3.13;70.71;101098.56;5037760;28;45275;-49
2021/12/23 09:36:49;;;;;;;;;50.00;42.75;;;;;3.13;70.76;101101.19;5037855;28;45388;-52
2021/12/23 09:39:14;;;;;;;;;61.25;47.50;;;;;3.16;70.94;101093.13;5037812;28;45663;-51
2021/12/23 09:41:42;;;;;;;;;71.50;52.75;;;;;3.20;70.52;101092.00;5037954;28;45386;-52
2021/12/23 09:44:09;;;;;;;;;60.00;45.75;;;;;3.26;70.64;101096.06;5037742;28;46258;-53
2021/12/23 09:46:36;;;;;;;;;57.25;48.25;;;;;3.30;70.45;101096.72;5037451;28;45372;-50
2021/12/23 09:49:04;;;;;;;;;61.25;46.25;;;;;3.34;69.93;101087.72;5037710;28;45370;-53
2021/12/23 09:51:32;;;;;;;;;72.50;51.00;;;;;3.41;70.27;101091.66;5037828;28;45513;-49
2021/12/23 09:54:01;;;;;;;;;61.00;45.25;;;;;3.43;70.47;101090.63;5036922;28;45422;-52
2021/12/23 09:56:28;;;;;;;;;63.25;49.00;;;;;3.50;69.96;101091.13;5037475;28;45316;-53
2021/12/23 09:58:57;;;;;;;;;70.00;52.00;;;;;3.54;69.84;101086.50;5019810;28;45367;-49
2021/12/23 10:01:23;;;;;;;;;53.50;45.75;;;;;3.55;70.36;101081.16;5037633;28;45405;-51
2021/12/23 10:03:49;;;;;;;;;69.75;49.25;;;;;3.66;70.59;101081.31;5037386;28;45913;-49
2021/12/23 10:06:14;;;;;;;;;68.25;48.00;;;;;3.72;70.00;101080.97;5037407;28;45255;-54
2021/12/23 10:08:41;;;;;;;;;70.50;52.75;;;;;3.74;69.29;101072.97;5019523;28;45330;-51
2021/12/23 10:11:27;;;;;;;;;68.25;51.00;;;;;3.83;69.37;101068.91;5037425;28;45539;-50
2021/12/23 10:31:04;;;;;;;;;70.75;51.25;;;;;4.19;68.97;101034.16;4956004;28;45317;-50
2021/12/23 10:33:44;;;;;;;;;68.00;50.50;;;;;4.25;68.75;101042.50;4956088;28;45456;-52
2021/12/23 10:38:46;;;;;;;;;67.75;45.50;;;;;4.44;69.83;101041.34;4955812;28;45405;-52
2021/12/23 10:41:15;;;;;;;;;63.75;44.75;;;;;4.54;69.82;101033.66;4956223;28;45305;-50
2021/12/23 10:43:45;;;;;;;;;60.50;48.75;;;;;4.62;70.54;101029.56;4956021;28;45261;-52
2021/12/23 10:46:22;;;;;;;;;62.00;42.50;;;;;4.74;70.53;101028.75;4955517;28;45541;-53
2021/12/23 10:52:07;;;;;;;;;56.50;48.00;;;;;5.02;69.73;101010.25;4955609;28;45513;-49
2021/12/23 11:00:33;;;;;;;;;60.25;44.25;;;;;5.32;69.88;101023.13;5036669;28;45406;-53
2021/12/23 11:03:17;;;;;;;;;66.25;47.25;;;;;5.31;70.44;100989.78;5036277;28;45455;-51
2021/12/23 11:05:54;;;;;;;;;45.25;39.00;;;;;5.46;70.49;101002.75;5036655;28;45367;-50
2021/12/23 11:08:37;;;;;;;;;56.75;45.25;;;;;5.56;70.46;100992.38;5036341;28;46266;-51
2021/12/23 11:31:43;;;;;;;;;54.25;43.25;;;;;6.43;69.67;100964.94;4958357;28;45404;-50
2021/12/23 11:43:57;;;;;;;;;44.75;40.75;;;;;6.80;68.92;100962.19;4958170;28;45366;-52
2021/12/23 11:46:35;;;;;;;;;52.50;40.50;;;;;6.79;68.52;100965.78;4958113;28;45404;-51
2021/12/23 11:49:02;;;;;;;;;58.50;41.75;;;;;6.77;68.86;100966.84;4958271;28;45434;-49
2021/12/23 11:53:57;;;;;;;;;47.00;36.00;;;;;6.79;69.90;100957.00;4958202;28;45592;-50
2021/12/23 11:56:25;;;;;;;;;44.25;33.00;;;;;6.78;68.77;100961.44;4958285;28;45285;-53
2021/12/23 11:58:55;;;;;;;;;54.50;32.75;;;;;6.73;69.15;100955.66;4957909;28;45694;-50
2021/12/23 12:01:25;;;;;;;;;47.25;37.25;;;;;6.73;69.38;100947.72;4973986;28;47266;-52
2021/12/23 12:04:00;;;;;;;;;46.50;39.25;;;;;6.70;69.83;100959.41;5038805;28;45289;-52
2021/12/23 12:06:38;;;;;;;;;48.75;39.25;;;;;6.68;70.22;100948.09;5039268;28;45277;-52
2021/12/23 12:09:31;;;;;;;;;38.25;34.50;;;;;6.74;70.57;100947.63;5039410;28;45354;-52
2021/12/23 12:11:59;;;;;;;;;42.75;37.50;;;;;6.93;71.00;100935.63;5038993;28;47243;-52
2021/12/23 12:14:38;;;;;;;;;44.25;37.00;;;;;7.68;69.64;100930.56;5039215;28;45348;-51
2021/12/23 12:17:25;;;;;;;;;45.00;40.00;;;;;8.44;66.83;100930.56;5038710;28;45295;-51
2021/12/23 12:20:13;;;;;;;;;47.25;40.00;;;;;9.00;65.39;100919.59;5039250;28;45384;-52
2021/12/23 12:22:56;;;;;;;;;49.00;38.25;;;;;9.70;65.30;100910.75;5038786;28;46219;-51
2021/12/23 12:25:25;;;;;;;;;50.50;34.75;;;;;10.25;63.18;100904.97;5020631;28;45307;-53